Otterville, Iowa
Current Conditions -  °F | °C
As of 8:15 AM on Sunday 25 Jan 2015 (Local Time) from KIIB Reporting Station
Light Snow Light Snow  
Wind Chill: 19°   Ceiling: 1400
Heat Index: 32°   Visibility: 1.7mi
Dew Point: 28°   Wind: 22mph
Humidity: 87%   Direction: 50°NE
Pressure: 29.77"   Gusts: 28mph
Location:  42.46°N, 91.7742°W
Report Text: KIIB 251415Z AUTO 05019G24KT 1 3/4SM -SN SCT010 BKN014 OVC020 00/M02 A2977 RMK AO2
Loading
Personal Weather Stations






























Interactive Weather Map New forecast layout! Learn more

10-Day Weather Forecast

Advertisements
Track Severe Weather on mobile